TimeEST,TemperatureF,Dew PointF,Humidity,Sea Level PressureIn,VisibilityMPH,Wind Direction,Wind SpeedMPH,Gust SpeedMPH,PrecipitationIn,Events,Conditions,WindDirDegrees,DateUTC
12:54 AM,30.0,17.1,59,30.40,10.0,WNW,4.6,-,N/A,,Overcast,290,2012-12-06 05:54:00
1:54 AM,30.0,18.0,61,30.40,10.0,West,4.6,-,N/A,,Overcast,260,2012-12-06 06:54:00
2:54 AM,30.0,18.0,61,30.42,10.0,West,6.9,-,N/A,,Overcast,260,2012-12-06 07:54:00
3:54 AM,28.9,17.1,61,30.41,10.0,Calm,Calm,-,N/A,,Overcast,0,2012-12-06 08:54:00
4:54 AM,27.0,18.0,69,30.41,10.0,WSW,3.5,-,N/A,,Scattered Clouds,250,2012-12-06 09:54:00
5:54 AM,27.0,18.0,69,30.40,10.0,Calm,Calm,-,N/A,,Mostly Cloudy,0,2012-12-06 10:54:00
6:54 AM,25.0,19.0,78,30.41,10.0,Calm,Calm,-,N/A,,Mostly Cloudy,0,2012-12-06 11:54:00
7:54 AM,25.0,19.0,78,30.40,10.0,Calm,Calm,-,N/A,,Mostly Cloudy,0,2012-12-06 12:54:00
8:54 AM,26.1,21.9,84,30.40,10.0,Calm,Calm,-,N/A,,Mostly Cloudy,0,2012-12-06 13:54:00
9:54 AM,30.0,19.0,64,30.38,10.0,SSE,6.9,-,N/A,,Mostly Cloudy,160,2012-12-06 14:54:00
10:54 AM,32.0,19.9,61,30.35,10.0,SE,6.9,-,N/A,,Mostly Cloudy,130,2012-12-06 15:54:00
11:54 AM,34.0,19.9,56,30.30,10.0,SSE,6.9,-,N/A,,Mostly Cloudy,150,2012-12-06 16:54:00
12:54 PM,36.0,21.0,55,30.25,10.0,ESE,8.1,-,N/A,,Mostly Cloudy,120,2012-12-06 17:54:00
1:54 PM,37.9,21.9,53,30.22,10.0,ESE,9.2,-,N/A,,Mostly Cloudy,120,2012-12-06 18:54:00
2:54 PM,37.9,23.0,55,30.19,10.0,ESE,11.5,-,N/A,,Mostly Cloudy,120,2012-12-06 19:54:00
3:54 PM,37.0,23.0,57,30.18,10.0,SE,8.1,-,N/A,,Overcast,130,2012-12-06 20:54:00
4:54 PM,35.1,23.0,61,30.16,10.0,ESE,6.9,-,N/A,,Mostly Cloudy,110,2012-12-06 21:54:00
5:54 PM,35.1,23.0,61,30.15,10.0,ESE,5.8,-,N/A,,Mostly Cloudy,120,2012-12-06 22:54:00
6:54 PM,35.1,23.0,61,30.13,10.0,SE,8.1,-,N/A,,Mostly Cloudy,130,2012-12-06 23:54:00
7:54 PM,35.1,21.9,59,30.10,10.0,SE,6.9,-,N/A,,Scattered Clouds,140,2012-12-07 00:54:00
8:54 PM,36.0,21.0,55,30.08,10.0,SSE,4.6,-,N/A,,Mostly Cloudy,150,2012-12-07 01:54:00
9:54 PM,39.0,19.0,45,30.06,10.0,South,8.1,-,N/A,,Mostly Cloudy,190,2012-12-07 02:54:00
10:54 PM,37.9,18.0,45,30.07,10.0,West,6.9,-,N/A,,Scattered Clouds,260,2012-12-07 03:54:00
11:54 PM,37.0,19.0,48,30.06,10.0,SSW,4.6,-,N/A,,Mostly Cloudy,200,2012-12-07 04:54:00